Lucama, North Carolina
Current Conditions -  °F | °C
As of 3:35 AM on Monday 24 Nov 2014 (Local Time) from KGWW Reporting Station
Overcast Overcast  
Wind Chill: 66°   Ceiling: 3300
Heat Index: 66°   Visibility: 10mi
Dew Point: 65°   Wind: 8mph
Humidity: 95%   Direction: 190°S
Pressure: 29.8"   Gusts: NA
Location:  35.65°N, 78.01°W
Report Text: KGWW 240835Z AUTO 19007KT 10SM BKN033 OVC038 19/18 A2980 RMK AO2 T01900182
Loading
Personal Weather Stations






























Interactive Weather Map New forecast layout! Learn more

10-Day Weather Forecast

Advertisements
Track Severe Weather on mobile